Aérodrome :
LOGIN :

S'inscrire | Disclaimer

   EN    FR    IT 

 










Légende :    VFR   VFR Marginal   IFR   IFR Intensif   IFR Très Intensif
Visi : 
Plafond : 
>= 8 km
>= 3000ft
5 à 8 km
1000 à 3000 ft
1500m à 5 km
500 à 1000 ft
800 à 1500m
200 à 500 ft
< 800m
< 200 ft
Symboles :   Orages  Brouillard  Fortes neiges  Fortes précipitations  Vent > 20 kt
SIGMETs :   Divers  Orages  Givrage  Turbulence  Onde Orograph.  Cendres Volcan.






- Altitude de l'aérodrome : 7 ft
- Code IATA : POW


LJPZ - Portoroz

DERNIER METAR :
  • 290500Z 05006KT 020V100 9999 -RA FEW060 BKN090 16/06 Q1007

METARs EXPIRÉS :
  • 290430Z 04003KT 340V090 CAVOK 16/06 Q1007
  • 290400Z 04003KT 340V080 CAVOK 16/06 Q1007
  • 290330Z AUTO VRB02KT 9999 NSC 16/06 Q1007
  • 290300Z AUTO VRB03KT 9999 NSC 16/06 Q1007
  • 290230Z AUTO 04006KT 010V070 9999 NSC 16/06 Q1007

TAF TAF LJPZ
Valide du 29 à 03h jusqu'au 29 à 12h UTC


290200Z 2903/2912 06010KT 9999 SCT050 BKN080
PROB30
TEMPO 2903/2905 -RA



MET'MAP, la Météo Aéronautique d'un coup d'oeil ! - Copyright ORBIFLY Décembre 2007 - Disclaimer

ORBIFLY MET'MAP TEAM :

Programmation & Développement : Alexandra Zaïnal
Sur une idée originale de : Baudouin d'Aumeries
Soutien technique & logistique : Manuel Goepfert
Assistance : Marc-Olivier Méhu

Contact : metmap@orbifly.com




SOURCES & CREDITS :

   NOAA